createdAt,value
2023-02-02T00:02:21.182Z,6.10
2023-02-02T00:05:25.929Z,4.00
2023-02-02T00:08:28.986Z,5.82
2023-02-02T00:11:32.705Z,6.15
2023-02-02T00:14:37.989Z,5.10
2023-02-02T00:17:41.153Z,8.23
2023-02-02T00:20:45.450Z,4.03
2023-02-02T00:23:48.505Z,4.35
2023-02-02T00:26:56.786Z,3.72
2023-02-02T00:29:59.582Z,5.73
2023-02-02T00:33:03.674Z,4.80
2023-02-02T00:36:07.574Z,4.97
2023-02-02T00:39:14.779Z,5.93
2023-02-02T00:42:20.402Z,6.30
2023-02-02T00:45:25.688Z,4.20
2023-02-02T00:48:29.132Z,4.23
2023-02-02T00:51:32.059Z,3.90
2023-02-02T00:54:34.979Z,5.30
2023-02-02T00:57:41.316Z,6.00
2023-02-02T01:00:45.161Z,5.03
2023-02-02T01:03:49.182Z,4.73
2023-02-02T01:06:52.025Z,5.07
2023-02-02T01:09:55.608Z,3.83
2023-02-02T01:12:58.992Z,3.75
2023-02-02T01:16:03.570Z,5.10
2023-02-02T01:19:07.613Z,5.83
2023-02-02T01:22:10.506Z,4.87
2023-02-02T01:25:14.930Z,7.40
2023-02-02T01:28:18.598Z,3.45
2023-02-02T01:31:21.869Z,4.03
2023-02-02T01:34:25.192Z,3.93
2023-02-02T01:37:30.428Z,4.72
2023-02-02T01:40:33.823Z,2.85
2023-02-02T01:43:45.497Z,3.60
2023-02-02T01:46:48.415Z,5.73
2023-02-02T01:49:52.667Z,3.63
2023-02-02T01:53:02.059Z,2.87
2023-02-02T01:56:07.609Z,4.03
2023-02-02T01:59:12.338Z,2.97
2023-02-02T02:02:16.417Z,3.63
2023-02-02T02:05:26.402Z,3.40
2023-02-02T02:08:33.944Z,3.75
2023-02-02T02:11:38.022Z,3.58
2023-02-02T02:15:00.486Z,4.37
2023-02-02T02:18:27.222Z,3.40
2023-02-02T02:22:26.989Z,3.57
2023-02-02T02:25:58.149Z,3.35
2023-02-02T02:29:17.691Z,3.58
2023-02-02T02:32:38.716Z,2.65
2023-02-02T02:35:50.578Z,3.37
2023-02-02T02:39:10.820Z,3.73
2023-02-02T02:42:20.661Z,3.85
2023-02-02T02:45:27.751Z,3.30
2023-02-02T02:48:31.571Z,3.65
2023-02-02T02:51:45.336Z,3.90
2023-02-02T02:54:52.951Z,4.07
2023-02-02T02:58:20.934Z,5.40
2023-02-02T03:01:38.223Z,4.53
2023-02-02T03:04:51.666Z,3.90
2023-02-02T03:08:06.279Z,3.47
2023-02-02T03:11:14.568Z,3.58
2023-02-02T03:14:17.621Z,3.35
2023-02-02T03:17:29.172Z,3.15
2023-02-02T03:20:32.089Z,4.60
2023-02-02T03:23:35.043Z,2.60
2023-02-02T03:26:37.781Z,4.18
2023-02-02T03:29:40.993Z,3.30
2023-02-02T03:32:44.383Z,2.75
2023-02-02T03:35:47.759Z,2.85
2023-02-02T03:38:50.424Z,3.40
2023-02-02T03:41:53.932Z,4.07
2023-02-02T03:44:56.694Z,3.00
2023-02-02T03:48:00.293Z,4.00
2023-02-02T03:51:12.279Z,2.92
2023-02-02T03:54:16.711Z,4.00
2023-02-02T03:57:20.157Z,3.87
2023-02-02T04:00:23.807Z,5.07
2023-02-02T04:03:27.307Z,3.22
2023-02-02T04:06:30.387Z,3.42
2023-02-02T04:09:35.348Z,2.00
2023-02-02T04:12:38.201Z,4.23
2023-02-02T04:15:43.813Z,2.90
2023-02-02T04:18:46.784Z,2.30
2023-02-02T04:21:52.311Z,2.90
2023-02-02T04:24:59.667Z,5.33
2023-02-02T04:28:03.962Z,3.33
2023-02-02T04:31:07.691Z,3.35
2023-02-02T04:34:12.611Z,2.37
2023-02-02T04:37:16.523Z,5.25
2023-02-02T04:40:20.919Z,2.43
2023-02-02T04:43:23.937Z,6.30
2023-02-02T04:46:28.652Z,2.65
2023-02-02T04:49:31.918Z,3.65
2023-02-02T04:52:35.212Z,3.47
2023-02-02T04:55:43.395Z,3.13
2023-02-02T04:58:47.809Z,4.47
2023-02-02T05:01:55.512Z,5.05
2023-02-02T05:05:00.245Z,5.10
2023-02-02T05:08:04.097Z,5.25
2023-02-02T05:11:09.722Z,4.57
2023-02-02T05:14:12.753Z,5.03
2023-02-02T05:17:15.673Z,5.25
2023-02-02T05:20:19.792Z,4.78
2023-02-02T05:23:22.953Z,4.07
2023-02-02T05:26:28.360Z,4.30
2023-02-02T05:29:32.702Z,5.15
2023-02-02T05:32:37.185Z,4.20
2023-02-02T05:35:40.520Z,22.70
2023-02-02T05:38:43.993Z,25.73
2023-02-02T05:41:48.462Z,8.33
2023-02-02T05:44:53.846Z,10.63
2023-02-02T05:48:01.784Z,15.10
2023-02-02T05:51:26.421Z,14.60
2023-02-02T05:54:29.746Z,8.90
2023-02-02T05:57:34.227Z,5.20
2023-02-02T06:00:41.283Z,8.52
2023-02-02T06:03:46.411Z,7.72
2023-02-02T06:06:49.837Z,5.40
2023-02-02T06:10:12.254Z,9.05
2023-02-02T06:13:19.303Z,6.93
2023-02-02T06:16:26.657Z,6.97
2023-02-02T06:19:30.442Z,3.92
2023-02-02T06:22:35.785Z,7.97
2023-02-02T06:25:41.450Z,7.72
2023-02-02T06:28:49.788Z,6.70
2023-02-02T06:31:53.552Z,5.28
2023-02-02T06:35:00.177Z,3.65
2023-02-02T06:38:05.735Z,5.20
2023-02-02T06:41:17.634Z,4.90
2023-02-02T06:44:22.289Z,5.17
2023-02-02T06:47:26.960Z,6.37
2023-02-02T06:50:31.045Z,5.40
2023-02-02T06:53:38.109Z,5.15
2023-02-02T06:56:46.263Z,4.00
2023-02-02T06:59:52.427Z,3.57
2023-02-02T07:02:56.214Z,4.70
2023-02-02T07:06:10.452Z,4.03
2023-02-02T07:09:14.542Z,4.12
2023-02-02T07:12:19.440Z,4.50
2023-02-02T07:15:28.587Z,5.87
2023-02-02T07:18:33.789Z,5.67
2023-02-02T07:21:37.224Z,3.87
2023-02-02T07:24:42.495Z,5.07
2023-02-02T07:27:48.292Z,10.23
2023-02-02T07:30:52.796Z,4.30
2023-02-02T07:34:04.371Z,5.23
2023-02-02T07:37:10.861Z,4.93
2023-02-02T07:40:16.446Z,6.28
2023-02-02T07:43:26.946Z,4.78
2023-02-02T07:46:32.483Z,5.97
2023-02-02T07:49:38.817Z,4.30
2023-02-02T07:52:46.300Z,4.50
2023-02-02T07:55:52.036Z,4.62
2023-02-02T07:58:57.233Z,3.62
2023-02-02T08:02:01.422Z,4.70
2023-02-02T08:05:08.275Z,3.67
2023-02-02T08:08:20.253Z,3.97
2023-02-02T08:11:25.429Z,4.05
2023-02-02T08:14:31.290Z,4.45
2023-02-02T08:17:35.217Z,5.43
2023-02-02T08:20:44.695Z,4.83
2023-02-02T08:23:50.226Z,5.78
2023-02-02T08:26:55.319Z,5.45
2023-02-02T08:30:04.303Z,6.72
2023-02-02T08:33:11.526Z,4.67
2023-02-02T08:36:23.905Z,6.67
2023-02-02T08:39:29.570Z,4.45
2023-02-02T08:42:40.571Z,3.33
2023-02-02T08:46:12.593Z,3.95
2023-02-02T08:49:16.029Z,3.93
2023-02-02T08:52:29.283Z,5.50
2023-02-02T08:55:32.996Z,5.65
2023-02-02T08:58:41.428Z,4.30
2023-02-02T09:01:45.109Z,6.15
2023-02-02T09:04:52.401Z,4.47
2023-02-02T09:07:59.485Z,6.97
2023-02-02T09:11:10.317Z,6.65
2023-02-02T09:14:16.434Z,4.95
2023-02-02T09:17:22.500Z,4.32
2023-02-02T09:20:28.777Z,5.30
2023-02-02T09:23:35.319Z,4.50
2023-02-02T09:26:44.631Z,5.90
2023-02-02T09:29:49.074Z,5.03
2023-02-02T09:32:54.839Z,5.35
2023-02-02T09:36:17.349Z,7.13
2023-02-02T09:39:21.714Z,5.97
2023-02-02T09:42:46.555Z,5.43
2023-02-02T09:45:55.209Z,5.85
2023-02-02T09:49:09.998Z,8.68
2023-02-02T09:52:26.878Z,5.57
2023-02-02T09:55:44.303Z,3.30
2023-02-02T09:59:10.198Z,6.47
2023-02-02T10:02:46.029Z,4.40
2023-02-02T10:06:08.570Z,4.40
2023-02-02T10:09:27.331Z,5.37
2023-02-02T10:13:07.264Z,4.93
2023-02-02T10:16:23.355Z,5.87
2023-02-02T10:19:29.575Z,5.80
2023-02-02T10:22:44.139Z,5.07
2023-02-02T10:25:59.395Z,5.87
2023-02-02T10:29:17.990Z,5.43
2023-02-02T10:32:36.283Z,4.93
2023-02-02T10:36:11.507Z,6.57
2023-02-02T10:39:28.603Z,5.78
2023-02-02T10:42:37.992Z,4.33
2023-02-02T10:45:45.028Z,5.97
2023-02-02T10:48:51.288Z,5.55
2023-02-02T10:52:13.930Z,3.75
2023-02-02T10:55:19.387Z,6.12
2023-02-02T10:58:30.501Z,5.27
2023-02-02T11:01:35.501Z,3.93
2023-02-02T11:05:08.299Z,6.30
2023-02-02T11:08:27.604Z,6.85
2023-02-02T11:11:40.035Z,4.72
2023-02-02T11:14:49.939Z,6.43
2023-02-02T11:17:53.674Z,5.33
2023-02-02T11:21:08.301Z,7.50
2023-02-02T11:24:25.299Z,5.45
2023-02-02T11:27:39.241Z,5.03
2023-02-02T11:30:52.757Z,6.23
2023-02-02T11:34:09.943Z,5.67
2023-02-02T11:37:25.402Z,5.30
2023-02-02T11:40:45.327Z,5.03
2023-02-02T11:43:58.092Z,6.12
2023-02-02T11:47:12.332Z,3.97
2023-02-02T11:50:27.337Z,4.20
2023-02-02T11:53:37.304Z,6.05
2023-02-02T11:56:50.355Z,4.60
2023-02-02T12:00:11.328Z,5.57
2023-02-02T12:03:35.414Z,8.07
2023-02-02T12:06:42.457Z,5.67
2023-02-02T12:09:54.250Z,7.10
2023-02-02T12:13:09.544Z,6.50
2023-02-02T12:16:41.601Z,5.20
2023-02-02T12:20:00.947Z,5.00
2023-02-02T12:23:16.717Z,5.80
2023-02-02T12:26:23.569Z,4.78
2023-02-02T12:30:09.380Z,5.03
2023-02-02T12:33:43.899Z,4.43
2023-02-02T12:37:08.260Z,4.77
2023-02-02T12:40:52.583Z,4.47
2023-02-02T12:44:19.423Z,7.80
2023-02-02T12:47:38.236Z,5.65
2023-02-02T12:50:55.332Z,5.78
2023-02-02T12:54:51.361Z,4.73
2023-02-02T12:58:24.643Z,5.93
2023-02-02T13:01:40.671Z,5.03
2023-02-02T13:05:04.687Z,6.03
2023-02-02T13:08:37.392Z,4.40
2023-02-02T13:11:54.359Z,5.93
2023-02-02T13:15:04.099Z,5.13
2023-02-02T13:18:33.301Z,5.85
2023-02-02T16:52:59.040Z,6.80
2023-02-02T16:56:06.220Z,9.77
2023-02-02T16:59:28.515Z,9.57
2023-02-02T17:02:39.434Z,9.48
2023-02-02T17:05:56.190Z,8.03
2023-02-02T17:09:43.373Z,14.15
2023-02-02T17:12:48.961Z,8.93
2023-02-02T17:16:01.283Z,9.05
2023-02-02T17:19:20.345Z,11.05
2023-02-02T17:22:35.311Z,15.47
2023-02-02T17:25:51.247Z,12.60
2023-02-02T17:29:04.324Z,23.70
2023-02-02T17:32:22.464Z,14.40
2023-02-02T17:35:53.145Z,12.90
2023-02-02T17:39:08.520Z,9.60
2023-02-02T17:42:30.180Z,10.88
2023-02-02T17:45:49.120Z,12.82
2023-02-02T17:49:10.286Z,13.70
2023-02-02T17:52:40.258Z,9.82
2023-02-02T17:55:48.352Z,10.70
2023-02-02T17:58:57.342Z,9.40
2023-02-02T18:02:02.464Z,11.27
2023-02-02T18:05:19.246Z,6.43
2023-02-02T18:08:34.212Z,8.48
2023-02-02T18:11:42.527Z,7.53
2023-02-02T18:14:51.086Z,8.38
2023-02-02T18:18:09.180Z,8.68
2023-02-02T18:21:22.133Z,8.25
2023-02-02T18:24:43.109Z,8.95
2023-02-02T18:27:59.050Z,9.93
2023-02-02T18:31:14.554Z,10.23
2023-02-02T18:34:35.033Z,11.55
2023-02-02T18:38:00.555Z,9.27
2023-02-02T18:41:09.038Z,9.57
2023-02-02T18:44:22.165Z,11.80
2023-02-02T18:47:37.229Z,10.43
2023-02-02T18:50:43.075Z,9.60
2023-02-02T18:53:49.175Z,11.07
2023-02-02T18:56:54.497Z,12.60
2023-02-02T18:59:59.107Z,12.93
2023-02-02T19:03:14.072Z,8.88
2023-02-02T19:06:50.229Z,8.38
2023-02-02T19:09:55.866Z,9.30
2023-02-02T19:13:19.557Z,10.15
2023-02-02T19:16:36.519Z,7.77
2023-02-02T19:19:54.822Z,9.43
2023-02-02T19:23:22.360Z,8.80
2023-02-02T19:26:38.353Z,7.95
2023-02-02T19:29:49.173Z,10.90
2023-02-02T19:32:53.820Z,9.70
2023-02-02T19:36:23.327Z,8.73
2023-02-02T19:39:37.277Z,9.32
2023-02-02T19:43:04.040Z,10.52
2023-02-02T19:46:20.694Z,9.40
2023-02-02T19:49:34.174Z,11.13
2023-02-02T19:52:48.395Z,8.55
2023-02-02T19:55:59.394Z,10.25
2023-02-02T19:59:20.501Z,8.77
2023-02-02T20:02:56.127Z,9.00
2023-02-02T20:06:06.326Z,10.70
2023-02-02T20:09:20.157Z,11.25
2023-02-02T20:12:31.540Z,11.93
2023-02-02T20:15:45.193Z,12.27
2023-02-02T20:18:59.110Z,9.52
2023-02-02T20:22:27.234Z,9.70
2023-02-02T20:25:34.156Z,12.00
2023-02-02T20:28:45.146Z,12.20
2023-02-02T20:31:58.276Z,9.05
2023-02-02T20:35:28.196Z,9.65
2023-02-02T20:38:45.137Z,11.70
2023-02-02T20:41:55.215Z,13.50
2023-02-02T20:45:15.023Z,8.23
2023-02-02T20:48:21.183Z,9.90
2023-02-02T20:51:37.060Z,8.23
2023-02-02T20:54:44.389Z,7.93
2023-02-02T20:57:56.390Z,7.22
2023-02-02T21:01:06.794Z,6.93
2023-02-02T21:04:11.208Z,7.87
2023-02-02T21:07:21.069Z,9.37
2023-02-02T21:10:29.286Z,9.57
2023-02-02T21:16:48.875Z,9.48
2023-02-02T21:19:58.659Z,9.03
2023-02-02T21:23:05.190Z,8.65
2023-02-02T21:26:10.385Z,7.30
2023-02-02T21:29:28.193Z,7.87
2023-02-02T21:32:35.066Z,11.32
2023-02-02T21:35:39.723Z,8.23
2023-02-02T21:38:44.091Z,7.95
2023-02-02T21:41:53.759Z,7.93
2023-02-02T21:45:00.096Z,9.15
2023-02-02T21:48:21.370Z,8.97
2023-02-02T21:51:34.353Z,8.95
2023-02-02T21:54:40.371Z,10.45
2023-02-02T21:57:45.468Z,9.63
2023-02-02T22:00:51.288Z,8.13
2023-02-02T22:03:55.201Z,7.83
2023-02-02T22:07:01.697Z,9.57
2023-02-02T22:10:29.227Z,10.50
2023-02-02T22:13:36.132Z,8.95
2023-02-02T22:16:44.273Z,8.40
2023-02-02T22:19:48.118Z,9.25
2023-02-02T22:22:52.255Z,7.93
2023-02-02T22:25:59.207Z,7.90
2023-02-02T22:29:16.121Z,6.40
2023-02-02T22:32:19.476Z,7.80
2023-02-02T22:35:28.174Z,7.82
2023-02-02T22:38:31.521Z,8.15
2023-02-02T22:41:34.800Z,7.18
2023-02-02T22:44:37.346Z,7.17
2023-02-02T22:47:47.597Z,6.25
2023-02-02T22:50:50.838Z,8.43
2023-02-02T22:53:55.548Z,6.68
2023-02-02T22:56:58.226Z,9.33
2023-02-02T23:00:01.245Z,9.23
2023-02-02T23:03:05.217Z,8.73
2023-02-02T23:06:09.269Z,7.30
2023-02-02T23:09:12.120Z,8.48
2023-02-02T23:12:15.203Z,9.67
2023-02-02T23:15:19.299Z,9.05
2023-02-02T23:18:22.895Z,8.20
2023-02-02T23:21:26.897Z,7.87
2023-02-02T23:24:30.654Z,7.50
2023-02-02T23:27:33.634Z,7.80
2023-02-02T23:30:37.512Z,7.28
2023-02-02T23:33:41.146Z,9.02
2023-02-02T23:36:45.626Z,10.30
2023-02-02T23:39:48.409Z,7.87
2023-02-02T23:42:51.594Z,5.72
2023-02-02T23:45:54.707Z,8.15
2023-02-02T23:48:59.576Z,6.77
2023-02-02T23:52:02.399Z,6.50
2023-02-02T23:55:06.219Z,11.12
2023-02-02T23:58:10.638Z,8.48
